Time;durP1;ratioP1;P1;durP2;ratioP2;P2;SDS_P1;SDS_P2;PMS_P1;PMS_P2;Temp;Humidity;BMP_temperature;BMP_pressure;BME280_temperature;BME280_humidity;BME280_pressure;Samples;Min_cycle;Max_cycle;Signal;HPM_P1;HPM_P2
2021/12/19 00:01:56;;;;;;;9.57;6.70;;;;;;;1.37;88.67;95470.78;4993214;28;20451;-80
2021/12/19 00:04:30;;;;;;;14.03;8.43;;;;;;;1.40;89.20;95475.81;4993215;28;20444;-80
2021/12/19 00:09:41;;;;;;;11.03;7.77;;;;;;;1.39;89.11;95474.13;4995409;28;20491;-79
2021/12/19 00:12:08;;;;;;;11.93;6.53;;;;;;;1.37;89.41;95470.78;4993041;28;20518;-80
2021/12/19 00:14:35;;;;;;;12.63;7.10;;;;;;;1.36;89.20;95464.75;4993382;28;20451;-81
2021/12/19 00:17:02;;;;;;;11.23;7.37;;;;;;;1.37;89.62;95457.84;4993622;28;20483;-80
2021/12/19 00:19:31;;;;;;;10.73;8.07;;;;;;;1.39;89.09;95461.22;4993892;28;20444;-80
2021/12/19 00:21:57;;;;;;;8.77;7.50;;;;;;;1.46;89.58;95457.50;4993828;28;20660;-80
2021/12/19 00:24:25;;;;;;;10.82;7.25;;;;;;;1.42;88.97;95450.75;4995614;28;20437;-80
2021/12/19 00:26:52;;;;;;;12.88;7.97;;;;;;;1.45;89.15;95448.06;5053756;28;20214;-80
2021/12/19 00:29:19;;;;;;;12.52;8.10;;;;;;;1.53;88.52;95452.00;5054883;28;20226;-80
2021/12/19 00:31:48;;;;;;;9.50;7.50;;;;;;;1.48;88.08;95456.53;5054301;28;20206;-80
2021/12/19 00:34:16;;;;;;;13.50;9.50;;;;;;;1.43;88.30;95444.66;5020210;28;20536;-80
2021/12/19 00:36:44;;;;;;;10.37;7.80;;;;;;;1.36;88.49;95444.06;5054524;28;20453;-80
2021/12/19 00:39:11;;;;;;;11.05;9.00;;;;;;;1.40;88.94;95449.97;5055039;28;20536;-80
2021/12/19 00:41:38;;;;;;;11.27;7.50;;;;;;;1.36;88.67;95453.56;5055024;28;20209;-80
2021/12/19 00:44:10;;;;;;;14.50;8.63;;;;;;;1.30;88.44;95443.50;5055026;28;20444;-80
2021/12/19 00:46:47;;;;;;;16.23;7.97;;;;;;;1.27;89.20;95444.47;5054434;28;20442;-80
2021/12/19 00:49:15;;;;;;;10.33;7.47;;;;;;;1.24;89.20;95450.59;5054206;28;20571;-80
2021/12/19 00:51:42;;;;;;;11.27;9.67;;;;;;;1.22;89.69;95449.81;5054515;28;20445;-80
2021/12/19 00:54:10;;;;;;;11.17;8.93;;;;;;;1.18;89.79;95443.09;5018985;28;20519;-79
2021/12/19 00:56:39;;;;;;;10.63;9.10;;;;;;;1.23;90.41;95437.72;5035619;28;20946;-80
2021/12/19 00:59:06;;;;;;;18.40;11.35;;;;;;;1.18;90.50;95437.06;5054335;28;20440;-80
2021/12/19 01:01:34;;;;;;;18.80;10.90;;;;;;;1.26;90.26;95436.75;5054729;28;20204;-80
2021/12/19 01:04:02;;;;;;;21.50;11.57;;;;;;;1.19;90.25;95424.09;5054439;28;20460;-80
2021/12/19 01:06:29;;;;;;;15.83;9.27;;;;;;;1.21;89.93;95419.69;5054119;28;20499;-80
2021/12/19 01:08:57;;;;;;;27.00;13.80;;;;;;;1.15;90.03;95414.75;5035383;28;20500;-80
2021/12/19 01:11:25;;;;;;;20.42;12.45;;;;;;;1.12;90.40;95420.03;5054197;28;20450;-80
2021/12/19 01:13:52;;;;;;;21.63;13.98;;;;;;;1.14;90.37;95414.81;5053824;28;20198;-80
2021/12/19 01:16:19;;;;;;;27.05;15.25;;;;;;;1.11;90.10;95417.53;5054020;28;20198;-80
2021/12/19 01:18:47;;;;;;;29.75;14.85;;;;;;;1.10;90.29;95416.69;5053611;28;20232;-80
2021/12/19 01:21:14;;;;;;;26.70;14.33;;;;;;;1.11;90.29;95415.78;5053855;28;20202;-80
2021/12/19 01:23:42;;;;;;;28.23;14.43;;;;;;;1.07;90.33;95410.78;5035317;28;20440;-80
2021/12/19 01:26:09;;;;;;;23.67;14.35;;;;;;;1.03;90.38;95417.84;5054351;28;20456;-80
2021/12/19 01:28:37;;;;;;;21.15;14.60;;;;;;;1.06;90.78;95417.72;5054328;28;20231;-80
2021/12/19 01:31:05;;;;;;;24.63;15.55;;;;;;;1.03;90.33;95412.66;5054146;28;20209;-80
2021/12/19 01:33:32;;;;;;;23.73;13.50;;;;;;;0.99;90.99;95424.03;5053875;28;20213;-80
2021/12/19 01:35:59;;;;;;;17.25;12.23;;;;;;;0.92;91.48;95417.41;5053505;28;20210;-80
2021/12/19 01:38:26;;;;;;;18.50;10.60;;;;;;;0.96;91.99;95402.63;5053090;28;20203;-80
2021/12/19 01:40:53;;;;;;;17.40;11.27;;;;;;;0.87;92.13;95398.69;5053354;28;20440;-80
2021/12/19 01:43:24;;;;;;;15.77;10.65;;;;;;;0.88;91.81;95390.88;5053483;28;20786;-80
2021/12/19 01:45:54;;;;;;;26.03;14.70;;;;;;;0.92;91.46;95395.00;5053611;28;20241;-80
2021/12/19 01:48:22;;;;;;;30.45;12.15;;;;;;;1.00;91.21;95391.28;5053841;28;20437;-80
2021/12/19 01:50:50;;;;;;;14.35;9.80;;;;;;;0.98;90.59;95396.50;5054045;28;20205;-80
2021/12/19 01:53:17;;;;;;;15.13;10.52;;;;;;;0.92;90.46;95396.75;5053463;28;20202;-80
2021/12/19 01:55:45;;;;;;;18.92;10.73;;;;;;;0.93;91.00;95393.25;5053698;28;20202;-80
2021/12/19 01:58:13;;;;;;;24.40;15.02;;;;;;;1.04;90.44;95390.25;5053782;28;20296;-80
2021/12/19 02:00:42;;;;;;;23.20;12.95;;;;;;;1.06;89.79;95389.28;5053304;28;20205;-80
2021/12/19 02:03:12;;;;;;;29.02;14.48;;;;;;;1.15;89.97;95388.91;5053306;28;20290;-80
2021/12/19 02:05:40;;;;;;;24.43;12.57;;;;;;;1.16;89.17;95385.44;5053425;28;20202;-80
2021/12/19 02:08:08;;;;;;;20.23;12.02;;;;;;;1.22;89.22;95387.78;5053276;28;20441;-80
2021/12/19 02:10:36;;;;;;;27.38;14.75;;;;;;;1.35;89.14;95385.53;5052910;28;20227;-80
2021/12/19 02:13:05;;;;;;;16.43;9.20;;;;;;;1.47;88.29;95381.59;5052981;28;20206;-80
2021/12/19 02:15:33;;;;;;;23.77;12.57;;;;;;;1.50;87.19;95369.38;5052917;28;20476;-80
2021/12/19 02:18:02;;;;;;;16.87;10.43;;;;;;;1.53;87.75;95371.84;5052818;28;20584;-80
2021/12/19 02:20:34;;;;;;;16.90;11.40;;;;;;;1.55;87.38;95371.78;5053399;28;20425;-80
2021/12/19 02:23:01;;;;;;;20.33;11.13;;;;;;;1.65;86.78;95367.88;5052889;28;20448;-80
2021/12/19 02:25:28;;;;;;;12.00;9.43;;;;;;;1.60;86.29;95363.81;5053012;28;20448;-80
2021/12/19 02:27:55;;;;;;;12.73;9.90;;;;;;;1.74;86.02;95369.25;5053105;28;20802;-80
2021/12/19 02:30:22;;;;;;;11.43;8.50;;;;;;;1.79;86.19;95369.91;5053188;28;20492;-80
2021/12/19 02:32:49;;;;;;;9.47;8.40;;;;;;;1.85;86.13;95370.47;5052857;28;20932;-80
2021/12/19 02:35:21;;;;;;;11.00;9.53;;;;;;;1.93;85.87;95372.72;5053116;28;20449;-80
2021/12/19 02:48:09;;;;;;;12.63;9.73;;;;;;;1.86;85.53;95366.97;5052700;28;20442;-80
2021/12/19 02:49:05;;;;;;;9.03;7.70;;;;;;;1.78;86.32;95366.47;5051983;28;20704;-80
2021/12/19 02:51:34;;;;;;;9.37;7.53;;;;;;;1.69;86.77;95360.84;5036201;28;20440;-80
2021/12/19 02:54:04;;;;;;;8.73;6.87;;;;;;;1.54;87.19;95354.59;5037207;28;20453;-80
2021/12/19 02:56:32;;;;;;;9.17;8.23;;;;;;;1.57;87.84;95349.28;5056098;28;20456;-80
2021/12/19 02:58:59;;;;;;;9.30;7.93;;;;;;;1.48;88.80;95347.94;5020684;28;20441;-80
2021/12/19 03:01:27;;;;;;;13.73;8.30;;;;;;;1.44;88.18;95343.75;5056019;28;20444;-80
2021/12/19 03:03:54;;;;;;;16.93;9.40;;;;;;;1.42;89.27;95347.31;5055614;28;20455;-80
2021/12/19 03:06:21;;;;;;;9.40;7.90;;;;;;;1.32;89.53;95339.13;5055917;28;20947;-80
2021/12/19 03:08:50;;;;;;;13.23;9.13;;;;;;;1.31;90.06;95334.00;5055681;28;20445;-80
2021/12/19 03:11:58;;;;;;;14.88;9.50;;;;;;;1.31;90.29;95341.78;5059326;28;20788;-80
2021/12/19 03:19:51;;;;;;;9.32;8.32;;;;;;;1.24;89.84;95341.19;5055853;28;20198;-80
2021/12/19 03:22:17;;;;;;;13.07;8.10;;;;;;;1.21;89.64;95342.16;5055907;28;20199;-80
2021/12/19 03:24:44;;;;;;;12.45;8.88;;;;;;;1.22;89.43;95338.66;5055671;28;20217;-80
2021/12/19 03:27:13;;;;;;;8.50;7.47;;;;;;;1.27;89.46;95337.63;5055660;28;20657;-80
2021/12/19 03:29:39;;;;;;;9.70;7.82;;;;;;;1.21;89.61;95342.16;5055559;28;20708;-80
2021/12/19 03:32:07;;;;;;;9.70;7.93;;;;;;;1.22;89.42;95338.66;5055940;28;20556;-80
2021/12/19 03:34:35;;;;;;;11.40;8.38;;;;;;;1.16;89.25;95333.75;5056291;28;20221;-80
2021/12/19 03:37:02;;;;;;;8.20;6.72;;;;;;;1.20;89.47;95337.06;5056250;28;20202;-80
2021/12/19 03:39:37;;;;;;;13.85;9.63;;;;;;;1.32;89.73;95333.09;5056404;28;20206;-80
2021/12/19 03:42:05;;;;;;;10.73;8.80;;;;;;;1.19;89.06;95343.13;5055750;28;20210;-80
2021/12/19 03:44:34;;;;;;;10.35;7.72;;;;;;;1.10;88.72;95333.97;5055601;28;20441;-80
2021/12/19 03:47:00;;;;;;;9.25;7.22;;;;;;;1.10;89.18;95339.16;5055202;28;20213;-80
2021/12/19 03:49:27;;;;;;;10.07;7.38;;;;;;;1.10;88.99;95338.31;5055303;28;20222;-80
2021/12/19 03:51:54;;;;;;;9.32;7.65;;;;;;;1.06;88.86;95329.84;5055506;28;20213;-80
2021/12/19 03:54:21;;;;;;;9.80;7.40;;;;;;;1.03;88.89;95326.56;5055102;28;20233;-80
2021/12/19 03:56:48;;;;;;;10.15;9.15;;;;;;;1.06;88.94;95329.00;5055334;28;20456;-80
2021/12/19 03:59:15;;;;;;;16.17;9.10;;;;;;;1.04;89.03;95317.91;5055492;28;20198;-80
2021/12/19 04:01:48;;;;;;;10.80;8.48;;;;;;;1.07;88.83;95317.78;5055406;28;20513;-80
2021/12/19 04:04:15;;;;;;;12.05;8.82;;;;;;;1.09;88.68;95311.63;5055513;28;20204;-80
2021/12/19 04:06:44;;;;;;;15.15;9.57;;;;;;;1.02;88.65;95314.53;5055369;28;20202;-80
2021/12/19 04:09:11;;;;;;;11.82;8.55;;;;;;;1.09;88.90;95311.63;5055268;28;20203;-80
2021/12/19 04:11:38;;;;;;;12.00;9.20;;;;;;;1.03;88.44;95313.63;5054862;28;20203;-80
2021/12/19 04:14:05;;;;;;;16.52;10.05;;;;;;;1.02;88.56;95305.03;5054587;28;20253;-80
2021/12/19 04:16:32;;;;;;;14.82;8.90;;;;;;;0.96;88.42;95302.72;5054700;28;20650;-80
2021/12/19 04:19:00;;;;;;;22.77;9.75;;;;;;;1.04;88.21;95302.41;5054409;28;20198;-80
2021/12/19 04:21:27;;;;;;;13.40;8.43;;;;;;;1.05;87.38;95304.06;5054995;28;20570;-80
2021/12/19 04:23:54;;;;;;;14.40;9.60;;;;;;;1.06;87.40;95301.44;5054666;28;20213;-80
2021/12/19 04:26:21;;;;;;;9.70;7.35;;;;;;;0.95;87.46;95292.44;5019526;28;20449;-80
2021/12/19 04:28:48;;;;;;;12.13;7.80;;;;;;;0.90;87.74;95292.63;5055280;28;20672;-80
2021/12/19 04:31:15;;;;;;;9.15;7.00;;;;;;;0.81;87.47;95295.56;5055171;28;20318;-80
2021/12/19 04:33:42;;;;;;;11.80;8.03;;;;;;;0.72;87.87;95285.63;5055299;28;20204;-80
2021/12/19 04:36:21;;;;;;;10.13;7.57;;;;;;;0.71;88.13;95289.94;5054676;28;20447;-80
2021/12/19 04:41:54;;;;;;;10.38;8.55;;;;;;;0.58;88.30;95281.03;5054579;28;20305;-79
2021/12/19 04:55:44;;;;;;;13.93;9.88;;;;;;;0.46;90.06;95269.41;4936211;29;20208;-80
2021/12/19 04:58:34;;;;;;;9.80;7.43;;;;;;;0.55;90.76;95273.38;4936179;29;20349;-84
2021/12/19 05:01:12;;;;;;;9.43;8.52;;;;;;;0.60;91.13;95272.31;4936157;29;20212;-79
2021/12/19 05:03:43;;;;;;;8.93;7.60;;;;;;;0.65;90.64;95272.13;4936025;29;20206;-80
2021/12/19 05:06:17;;;;;;;12.75;8.73;;;;;;;0.81;90.26;95272.31;4935445;29;20226;-79
2021/12/19 05:14:20;;;;;;;9.35;7.50;;;;;;;0.97;88.53;95275.97;4934667;29;20202;-80
2021/12/19 05:16:48;;;;;;;11.60;7.80;;;;;;;0.95;87.94;95284.69;4934361;29;20253;-80
2021/12/19 05:19:25;;;;;;;11.88;8.20;;;;;;;1.03;88.35;95288.63;4934488;29;20613;-80
2021/12/19 05:21:55;;;;;;;13.88;10.23;;;;;;;1.15;87.95;95287.28;4936186;28;20295;-80
2021/12/19 05:24:47;;;;;;;14.65;10.13;;;;;;;1.35;87.75;95286.44;4991957;28;20208;-80
2021/12/19 05:27:14;;;;;;;12.25;8.77;;;;;;;1.46;87.10;95276.50;4991953;28;20699;-80
2021/12/19 05:29:41;;;;;;;9.23;7.87;;;;;;;1.50;86.51;95281.47;4992353;28;20232;-80
2021/12/19 05:32:09;;;;;;;10.70;8.20;;;;;;;1.62;85.74;95280.09;5007917;28;20460;-79
2021/12/19 05:34:36;;;;;;;11.40;9.25;;;;;;;1.59;85.91;95287.97;5053369;28;20445;-79
2021/12/19 05:45:20;;;;;;;8.98;7.50;;;;;;;1.46;85.96;95289.44;5052912;28;20432;-79
2021/12/19 05:47:50;;;;;;;14.30;8.98;;;;;;;1.47;86.25;95283.34;5052190;28;20648;-80
2021/12/19 05:50:19;;;;;;;15.75;10.90;;;;;;;1.61;86.68;95283.56;5017442;28;20301;-81
2021/12/19 05:52:46;;;;;;;15.67;10.70;;;;;;;1.69;86.77;95281.50;5053101;28;20199;-80
2021/12/19 05:55:15;;;;;;;20.07;11.00;;;;;;;1.65;85.94;95281.69;5053384;28;20532;-80
2021/12/19 05:57:43;;;;;;;14.17;9.40;;;;;;;1.64;86.09;95277.44;5052646;28;20451;-80
2021/12/19 06:00:13;;;;;;;10.68;9.50;;;;;;;1.71;86.29;95277.09;5050915;28;20451;-80
2021/12/19 06:02:41;;;;;;;12.10;10.18;;;;;;;1.89;85.97;95272.00;5051140;28;20845;-79
2021/12/19 06:05:09;;;;;;;13.90;9.73;;;;;;;2.00;84.95;95269.78;5052905;28;20199;-80
2021/12/19 06:07:35;;;;;;;14.00;10.30;;;;;;;2.06;84.40;95265.19;5057937;28;20445;-81
2021/12/19 06:10:05;;;;;;;13.77;9.60;;;;;;;2.06;84.01;95259.16;5054145;28;20556;-82
2021/12/19 06:12:33;;;;;;;17.50;9.43;;;;;;;2.03;84.06;95260.16;5054501;28;20797;-81
2021/12/19 06:15:00;;;;;;;22.90;13.50;;;;;;;2.01;83.87;95256.75;5054663;28;20441;-80
2021/12/19 06:17:27;;;;;;;14.68;9.95;;;;;;;1.83;83.40;95253.28;5054678;28;21030;-81
2021/12/19 06:19:54;;;;;;;11.55;7.82;;;;;;;1.75;83.85;95249.38;5054674;28;20190;-80
2021/12/19 06:22:21;;;;;;;13.20;8.43;;;;;;;1.73;83.92;95244.22;5054852;28;20209;-81
2021/12/19 06:24:48;;;;;;;12.80;8.93;;;;;;;1.67;84.34;95246.25;5033168;28;20513;-81
2021/12/19 06:27:15;;;;;;;25.27;12.37;;;;;;;1.69;84.64;95237.50;5038648;28;20480;-81
2021/12/19 06:29:43;;;;;;;15.93;9.30;;;;;;;1.63;84.35;95240.38;5038145;28;21253;-79
2021/12/19 06:32:10;;;;;;;19.67;10.77;;;;;;;1.62;85.04;95230.94;5037760;28;20445;-77
2021/12/19 06:34:37;;;;;;;15.37;10.50;;;;;;;1.48;85.65;95228.16;5037989;28;20188;-79
2021/12/19 06:37:08;;;;;;;12.13;9.63;;;;;;;1.55;85.69;95234.72;5037668;28;20541;-78
2021/12/19 06:39:36;;;;;;;20.60;11.20;;;;;;;1.54;85.36;95227.88;5037977;28;20196;-78
2021/12/19 06:42:04;;;;;;;16.13;9.87;;;;;;;1.48;84.97;95230.72;5019477;28;20450;-78
2021/12/19 06:44:31;;;;;;;15.23;8.90;;;;;;;1.41;84.80;95224.13;5038605;28;20431;-78
2021/12/19 06:46:59;;;;;;;15.50;8.63;;;;;;;1.41;85.43;95226.72;5038206;28;20225;-79
2021/12/19 06:49:26;;;;;;;14.98;9.10;;;;;;;1.40;85.18;95225.88;5038464;28;20204;-78
2021/12/19 06:51:53;;;;;;;18.30;9.70;;;;;;;1.40;85.05;95222.44;5037806;28;20211;-79
2021/12/19 06:54:20;;;;;;;16.20;10.03;;;;;;;1.53;85.54;95218.44;5038044;28;20446;-78
2021/12/19 06:56:47;;;;;;;14.13;9.07;;;;;;;1.47;84.74;95210.94;5037998;28;20426;-80
2021/12/19 06:59:14;;;;;;;15.80;9.77;;;;;;;1.59;84.29;95228.50;5037398;28;20294;-80
2021/12/19 07:01:41;;;;;;;17.08;11.10;;;;;;;1.61;83.76;95215.50;5037293;28;20439;-79
2021/12/19 07:04:09;;;;;;;15.13;10.93;;;;;;;1.65;83.79;95227.38;5037898;28;20196;-80
2021/12/19 07:06:36;;;;;;;14.50;11.10;;;;;;;1.71;83.52;95222.75;5037567;28;20771;-79
2021/12/19 07:09:03;;;;;;;12.67;10.00;;;;;;;1.75;83.25;95224.34;5037890;28;20444;-79
2021/12/19 07:11:31;;;;;;;14.90;10.20;;;;;;;1.78;83.01;95219.00;5037764;28;20477;-81
2021/12/19 07:13:58;;;;;;;16.67;10.67;;;;;;;1.92;82.41;95214.94;5038319;28;20209;-81
2021/12/19 07:16:25;;;;;;;16.00;8.83;;;;;;;1.91;82.55;95216.69;5038743;28;20439;-80
2021/12/19 07:18:52;;;;;;;12.43;10.55;;;;;;;1.85;82.76;95212.66;5037420;28;20458;-80
2021/12/19 07:21:23;;;;;;;13.82;9.50;;;;;;;1.79;82.71;95212.94;5037326;28;20192;-80
2021/12/19 07:23:50;;;;;;;18.27;10.60;;;;;;;1.76;83.04;95207.06;5037308;28;20676;-80
2021/12/19 07:26:17;;;;;;;20.33;11.73;;;;;;;1.76;83.50;95205.31;5036727;28;20199;-80
2021/12/19 07:28:47;;;;;;;17.70;11.77;;;;;;;1.73;83.50;95197.66;5037591;28;20438;-81
2021/12/19 07:31:16;;;;;;;22.30;15.02;;;;;;;1.70;84.22;95205.56;5037453;28;20223;-80
2021/12/19 07:33:45;;;;;;;15.07;11.45;;;;;;;1.71;83.72;95212.41;5037676;28;20211;-80
2021/12/19 07:36:12;;;;;;;18.03;12.30;;;;;;;1.75;83.75;95208.81;5036848;28;20203;-80
2021/12/19 07:38:51;;;;;;;27.17;16.83;;;;;;;1.76;83.74;95205.31;5037609;28;20442;-79
2021/12/19 07:41:18;;;;;;;24.02;13.38;;;;;;;1.78;83.59;95200.06;5036813;28;20454;-80
2021/12/19 07:43:46;;;;;;;21.70;11.20;;;;;;;2.89;100.00;95180.91;5036674;28;20203;-80
2021/12/19 07:46:12;;;;;;;18.90;11.53;;;;;;;2.71;83.88;95201.66;5036580;28;20445;-80
2021/12/19 07:48:39;;;;;;;25.60;11.07;;;;;;;2.57;81.03;95198.03;5036028;28;20932;-82
2021/12/19 07:51:06;;;;;;;15.40;9.93;;;;;;;2.78;82.78;95208.19;5036291;28;20568;-81
2021/12/19 07:53:33;;;;;;;15.03;10.33;;;;;;;2.70;80.30;95202.56;5037207;28;20443;-79
2021/12/19 07:56:02;;;;;;;12.80;9.60;;;;;;;2.66;80.31;95208.81;5036191;28;20452;-79
2021/12/19 07:58:29;;;;;;;14.50;9.37;;;;;;;2.53;80.37;95191.34;5036305;28;20466;-79
2021/12/19 08:00:55;;;;;;;13.07;9.17;;;;;;;2.42;82.16;95190.13;5036327;28;20442;-79
2021/12/19 08:03:22;;;;;;;12.27;8.10;;;;;;;2.32;81.58;95181.13;5035623;28;20445;-79
2021/12/19 08:05:50;;;;;;;14.57;9.00;;;;;;;2.33;81.53;95174.19;5036427;28;20457;-78
2021/12/19 08:08:21;;;;;;;13.90;8.97;;;;;;;2.26;81.41;95172.78;5017468;28;20469;-79
2021/12/19 08:13:34;;;;;;;13.33;10.07;;;;;;;2.37;81.87;95160.19;5035589;28;20456;-78
2021/12/19 08:16:01;;;;;;;16.83;10.20;;;;;;;2.39;81.32;95160.94;5035768;28;20438;-79
2021/12/19 08:18:28;;;;;;;20.10;12.57;;;;;;;2.49;81.09;95151.81;5035771;28;20478;-79
2021/12/19 08:20:55;;;;;;;10.83;7.23;;;;;;;2.52;80.98;95151.66;5017309;28;20529;-78
2021/12/19 08:23:22;;;;;;;17.87;11.90;;;;;;;2.54;79.94;95139.47;5035631;28;20445;-79
2021/12/19 08:25:49;;;;;;;19.37;10.97;;;;;;;2.60;79.58;95139.19;5050158;28;20442;-79
2021/12/19 08:28:16;;;;;;;18.70;10.20;;;;;;;2.65;79.94;95139.78;5056132;28;20430;-79
2021/12/19 08:30:44;;;;;;;16.67;10.83;;;;;;;2.78;80.19;95135.66;5055911;28;21001;-79
2021/12/19 08:33:11;;;;;;;11.53;8.67;;;;;;;2.79;79.32;95126.13;5055743;28;20446;-78
2021/12/19 08:35:38;;;;;;;16.47;10.10;;;;;;;4.22;100.00;95102.81;5055379;28;20437;-79
2021/12/19 08:38:05;;;;;;;20.70;12.83;;;;;;;3.41;81.97;95128.03;5055500;28;20437;-79
2021/12/19 08:40:32;;;;;;;29.63;14.07;;;;;;;3.35;79.83;95133.56;5055322;28;20433;-78
2021/12/19 08:43:00;;;;;;;25.90;12.10;;;;;;;3.27;78.64;95143.50;5054852;28;20449;-79
2021/12/19 08:45:27;;;;;;;25.03;14.07;;;;;;;3.26;78.09;95146.19;5055056;28;20437;-78
2021/12/19 08:47:56;;;;;;;12.10;8.77;;;;;;;3.25;77.80;95145.34;5054432;28;20441;-78
2021/12/19 08:50:23;;;;;;;14.90;10.20;;;;;;;3.25;78.04;95150.53;5054654;28;20431;-78
2021/12/19 08:52:51;;;;;;;12.93;10.40;;;;;;;3.30;78.75;95147.69;5055124;28;20446;-78
2021/12/19 08:55:19;;;;;;;19.87;12.33;;;;;;;3.24;77.90;95151.44;5054766;28;20445;-79
2021/12/19 08:57:46;;;;;;;17.67;10.57;;;;;;;3.24;78.37;95150.59;5055029;28;20433;-78
2021/12/19 09:00:16;;;;;;;15.00;8.93;;;;;;;3.23;78.82;95151.53;5054985;28;20815;-77
2021/12/19 09:02:57;;;;;;;17.00;11.40;;;;;;;3.28;77.91;95139.16;5054981;28;20491;-78
2021/12/19 09:05:27;;;;;;;17.87;12.07;;;;;;;3.40;78.29;95143.69;5054697;28;20433;-78
2021/12/19 09:07:54;;;;;;;10.70;7.40;;;;;;;3.40;77.66;95123.78;5054902;28;20452;-78
2021/12/19 09:10:21;;;;;;;12.70;9.53;;;;;;;3.42;78.02;95134.06;5054973;28;20445;-77
2021/12/19 09:12:49;;;;;;;14.03;10.13;;;;;;;3.47;78.54;95129.50;5019666;28;20493;-78
2021/12/19 09:15:16;;;;;;;14.50;9.00;;;;;;;3.48;77.83;95123.38;5054846;28;20452;-78
2021/12/19 09:17:43;;;;;;;15.70;10.27;;;;;;;3.33;78.34;95116.41;5020001;28;20461;-78
2021/12/19 09:20:12;;;;;;;13.13;9.60;;;;;;;3.37;78.70;95123.09;5054820;28;20434;-78
2021/12/19 09:22:46;;;;;;;19.87;11.27;;;;;;;3.36;77.76;95114.47;5054901;28;20441;-78
2021/12/19 09:25:13;;;;;;;14.23;9.63;;;;;;;3.26;79.12;95115.06;5054693;28;20433;-77
2021/12/19 09:27:40;;;;;;;11.10;8.70;;;;;;;3.22;78.70;95113.56;5054538;28;20449;-77
2021/12/19 09:30:08;;;;;;;14.80;9.77;;;;;;;3.25;79.66;95105.59;5054884;28;20437;-78
2021/12/19 09:32:35;;;;;;;11.17;8.70;;;;;;;3.23;79.26;95099.66;5035953;28;20560;-80
2021/12/19 09:35:02;;;;;;;9.73;8.20;;;;;;;3.17;79.71;95099.97;5054221;28;20434;-78
2021/12/19 09:37:30;;;;;;;18.40;11.47;;;;;;;3.11;79.61;95099.38;5054129;28;21047;-78
2021/12/19 09:40:01;;;;;;;21.33;12.90;;;;;;;3.08;79.31;95096.94;5019622;28;20445;-78
2021/12/19 09:42:33;;;;;;;20.97;14.67;;;;;;;3.09;80.07;95090.00;5054348;28;20441;-78
2021/12/19 09:45:01;;;;;;;19.80;13.20;;;;;;;3.11;80.07;95082.97;5054825;28;20525;-78
2021/12/19 09:47:28;;;;;;;16.83;11.80;;;;;;;3.15;85.20;95070.69;5054492;28;20453;-78
2021/12/19 09:49:57;;;;;;;12.77;10.50;;;;;;;3.14;81.00;95069.84;5055121;28;20429;-78
2021/12/19 09:52:24;;;;;;;16.70;10.50;;;;;;;3.23;79.70;95068.56;5054255;28;20813;-78
2021/12/19 09:54:53;;;;;;;20.27;13.37;;;;;;;3.32;80.42;95055.91;5055043;28;20437;-76
2021/12/19 09:57:20;;;;;;;17.53;9.53;;;;;;;3.26;80.32;95053.66;5035781;28;20433;-78
2021/12/19 09:59:46;;;;;;;12.63;10.43;;;;;;;3.22;79.84;95056.50;5053750;28;20433;-78
2021/12/19 10:02:13;;;;;;;16.03;12.33;;;;;;;3.17;81.38;95045.53;5054460;28;20503;-78
2021/12/19 10:04:42;;;;;;;16.27;12.17;;;;;;;3.20;80.32;95035.84;5055119;28;20426;-78
2021/12/19 10:07:12;;;;;;;16.73;12.30;;;;;;;3.15;80.40;95029.22;5054415;28;20438;-78
2021/12/19 10:09:43;;;;;;;19.17;12.03;;;;;;;3.21;80.88;95018.53;5020515;28;20446;-78
2021/12/19 10:15:00;;;;;;;18.87;11.83;;;;;;;3.33;80.56;95015.25;4992818;28;20452;-78
2021/12/19 10:17:27;;;;;;;18.17;12.53;;;;;;;3.45;80.53;95001.59;4992342;28;20487;-78
2021/12/19 10:19:57;;;;;;;18.30;12.27;;;;;;;3.46;80.63;95005.88;4992596;28;20542;-78
2021/12/19 10:22:29;;;;;;;13.90;10.30;;;;;;;3.46;80.30;95000.69;4992362;28;20970;-78
2021/12/19 10:24:58;;;;;;;25.40;13.60;;;;;;;3.47;80.60;94999.81;4992442;28;20448;-78
2021/12/19 10:27:37;;;;;;;21.50;11.77;;;;;;;3.47;80.42;94989.41;4993272;28;20452;-78
2021/12/19 10:30:10;;;;;;;19.60;13.00;;;;;;;4.91;100.00;94969.66;4993494;28;20444;-80
2021/12/19 10:32:37;;;;;;;18.53;13.17;;;;;;;4.97;78.97;94979.69;4993352;28;20475;-78
2021/12/19 10:35:15;;;;;;;14.47;11.80;;;;;;;5.31;91.74;94979.38;4992566;28;20460;-80
2021/12/19 10:37:43;;;;;;;20.60;13.07;;;;;;;4.81;76.64;94976.34;4992799;28;20961;-77
2021/12/19 10:40:11;;;;;;;17.73;11.60;;;;;;;4.70;78.30;94968.38;4976242;28;20474;-78
2021/12/19 10:42:47;;;;;;;14.33;11.40;;;;;;;4.55;76.78;94969.31;4992372;28;20953;-78
2021/12/19 10:45:33;;;;;;;20.77;14.50;;;;;;;4.52;77.68;94970.31;4992843;28;20980;-77
2021/12/19 10:48:23;;;;;;;19.27;13.47;;;;;;;4.39;77.49;94969.41;4992547;28;20429;-77
2021/12/19 10:50:54;;;;;;;23.13;14.80;;;;;;;4.36;79.28;94964.38;4992663;28;20548;-77
2021/12/19 10:53:26;;;;;;;14.67;11.40;;;;;;;4.30;79.11;94960.38;5049649;28;20517;-78
2021/12/19 10:55:54;;;;;;;21.00;13.27;;;;;;;4.09;78.13;94951.25;5054451;28;20444;-77
2021/12/19 10:58:33;;;;;;;21.50;14.20;;;;;;;4.04;79.75;94948.06;5053655;28;20437;-78
2021/12/19 11:01:14;;;;;;;24.70;15.63;;;;;;;4.13;80.04;94942.38;5054352;28;20441;-78
2021/12/19 11:03:48;;;;;;;24.27;15.47;;;;;;;4.07;80.10;94950.53;5053868;28;20426;-78
2021/12/19 11:06:28;;;;;;;20.70;13.57;;;;;;;3.98;80.82;94933.69;5035546;28;20928;-78
2021/12/19 11:08:56;;;;;;;11.30;8.73;;;;;;;3.78;80.77;94928.00;5053332;28;20447;-78
2021/12/19 11:11:52;;;;;;;20.73;12.23;;;;;;;3.74;82.48;94919.53;5053965;28;20856;-78
2021/12/19 11:14:24;;;;;;;17.20;12.20;;;;;;;3.66;81.70;94919.16;5056939;28;20519;-78
2021/12/19 11:16:53;;;;;;;12.83;10.23;;;;;;;3.69;83.14;94916.38;5056994;28;20812;-78
2021/12/19 11:19:20;;;;;;;12.17;9.93;;;;;;;3.59;82.17;94910.88;5056827;28;20940;-78
2021/12/19 11:21:48;;;;;;;23.83;13.57;;;;;;;3.61;83.01;94924.63;5023477;28;20452;-78
2021/12/19 11:24:16;;;;;;;22.80;13.40;;;;;;;3.57;82.55;94899.78;5060902;28;21576;-77
2021/12/19 11:26:45;;;;;;;15.43;10.73;;;;;;;3.56;83.16;94902.44;5058643;28;20433;-78
2021/12/19 11:29:12;;;;;;;29.00;13.93;;;;;;;3.65;83.16;94900.16;5058428;28;20452;-78
2021/12/19 11:31:45;;;;;;;22.13;13.77;;;;;;;3.56;81.71;94895.50;5040376;28;20491;-77
2021/12/19 11:34:20;;;;;;;16.93;11.53;;;;;;;3.69;82.15;94890.44;5058555;28;20480;-78
2021/12/19 11:36:55;;;;;;;20.10;11.53;;;;;;;3.74;80.57;94878.84;5058336;28;20803;-78
2021/12/19 11:39:27;;;;;;;29.43;16.40;;;;;;;3.88;81.31;94879.81;5057808;28;20452;-78
2021/12/19 11:42:10;;;;;;;20.73;13.17;;;;;;;3.87;80.36;94880.75;5057282;28;20445;-78
2021/12/19 11:44:46;;;;;;;10.80;9.00;;;;;;;3.88;79.79;94880.66;5057576;28;20529;-77
2021/12/19 11:47:39;;;;;;;25.33;16.10;;;;;;;3.98;80.06;94873.16;5056577;28;20861;-78
2021/12/19 11:50:18;;;;;;;19.23;11.77;;;;;;;3.99;79.57;94872.22;5056787;28;20476;-77
2021/12/19 11:52:45;;;;;;;30.13;13.67;;;;;;;3.96;79.52;94873.25;5022343;28;20481;-78
2021/12/19 11:55:24;;;;;;;19.23;13.27;;;;;;;3.93;79.04;94857.84;5057668;28;20591;-78
2021/12/19 11:58:17;;;;;;;23.70;13.37;;;;;;;3.70;81.00;94851.41;5059047;28;20540;-78
2021/12/19 12:00:50;;;;;;;21.67;12.90;;;;;;;3.72;80.85;94846.13;5056543;28;20449;-77
2021/12/19 12:03:43;;;;;;;19.60;12.80;;;;;;;3.75;80.68;94843.34;5028076;28;20963;-80
2021/12/19 12:06:28;;;;;;;17.30;12.00;;;;;;;3.83;79.96;94835.97;5036239;28;20480;-79
2021/12/19 12:09:25;;;;;;;17.20;9.67;;;;;;;3.99;80.28;94841.06;5039415;28;20484;-79
2021/12/19 12:12:34;;;;;;;19.23;12.87;;;;;;;4.26;80.09;94830.78;5005648;28;20487;-79
2021/12/19 12:15:07;;;;;;;24.67;13.57;;;;;;;4.35;79.45;94828.47;4996987;28;20467;-78
2021/12/19 12:17:40;;;;;;;22.27;11.40;;;;;;;4.37;78.25;94832.75;4995177;28;20480;-78
2021/12/19 12:20:26;;;;;;;21.70;12.03;;;;;;;4.39;78.57;94821.31;4995657;28;20448;-78
2021/12/19 12:23:08;;;;;;;14.00;10.27;;;;;;;4.27;78.26;94817.69;4995248;28;20499;-78
2021/12/19 12:25:41;;;;;;;22.47;12.43;;;;;;;4.18;79.05;94815.69;4965071;28;20455;-78
2021/12/19 12:28:10;;;;;;;21.70;12.50;;;;;;;4.15;79.65;94804.66;4963983;28;20452;-79
2021/12/19 12:30:42;;;;;;;26.58;14.88;;;;;;;4.32;79.46;94802.66;4998670;28;20851;-78
2021/12/19 12:33:14;;;;;;;23.10;12.63;;;;;;;4.28;79.33;94796.00;4995880;28;20229;-79